createdAt,value
2023-01-13T00:01:29.040Z,95977.48
2023-01-13T00:03:57.613Z,95980.52
2023-01-13T00:06:26.523Z,95977.66
2023-01-13T00:08:55.011Z,95977.44
2023-01-13T00:11:23.597Z,95977.95
2023-01-13T00:13:51.687Z,95978.48
2023-01-13T00:16:20.965Z,95975.75
2023-01-13T00:18:51.241Z,95974.98
2023-01-13T00:21:24.624Z,95974.89
2023-01-13T00:23:54.031Z,95979.11
2023-01-13T00:26:24.625Z,95983.39
2023-01-13T00:28:58.216Z,95989.25
2023-01-13T00:31:27.525Z,95991.52
2023-01-13T00:34:00.506Z,95986.83
2023-01-13T00:36:29.557Z,95984.96
2023-01-13T00:38:58.317Z,95987.80
2023-01-13T00:41:27.515Z,95990.61
2023-01-13T00:43:55.516Z,95993.70
2023-01-13T00:46:23.950Z,95988.92
2023-01-13T00:48:52.332Z,95988.48
2023-01-13T00:51:21.990Z,95991.40
2023-01-13T00:53:51.902Z,95992.00
2023-01-13T00:56:38.584Z,95991.83
2023-01-13T00:59:12.515Z,95990.12
2023-01-13T01:01:41.579Z,95993.14
2023-01-13T01:04:09.857Z,95991.64
2023-01-13T01:06:38.352Z,95985.59
2023-01-13T01:09:06.557Z,95988.14
2023-01-13T01:11:35.040Z,95990.83
2023-01-13T01:14:04.149Z,95988.70
2023-01-13T01:16:34.137Z,95982.98
2023-01-13T01:19:03.532Z,95973.27
2023-01-13T01:21:32.720Z,95975.38
2023-01-13T01:24:02.693Z,95972.23
2023-01-13T01:26:32.017Z,95967.52
2023-01-13T01:29:02.350Z,95971.21
2023-01-13T01:31:33.379Z,95962.24
2023-01-13T01:34:01.734Z,95966.30
2023-01-13T01:36:30.398Z,95970.19
2023-01-13T01:38:59.508Z,95961.96
2023-01-13T01:41:30.531Z,95962.64
2023-01-13T01:44:08.036Z,95959.90
2023-01-13T01:46:40.266Z,95959.94
2023-01-13T01:49:14.232Z,95960.21
2023-01-13T01:52:04.574Z,95958.40
2023-01-13T01:54:48.583Z,95959.33
2023-01-13T01:57:44.036Z,95960.48
2023-01-13T02:00:13.303Z,95960.02
2023-01-13T02:02:45.571Z,95958.62
2023-01-13T02:05:14.485Z,95961.45
2023-01-13T02:07:44.699Z,95957.56
2023-01-13T02:10:15.596Z,95953.55
2023-01-13T02:12:45.434Z,95961.49
2023-01-13T02:15:17.943Z,95963.66
2023-01-13T02:18:06.306Z,95963.73
2023-01-13T02:20:59.220Z,95966.94
2023-01-13T02:23:54.793Z,95966.05
2023-01-13T02:26:40.902Z,95963.61
2023-01-13T02:30:05.171Z,95968.35
2023-01-13T02:32:51.559Z,95961.18
2023-01-13T02:35:36.027Z,95957.59
2023-01-13T02:38:05.604Z,95952.59
2023-01-13T02:40:59.191Z,95954.01
2023-01-13T02:43:48.869Z,95950.39
2023-01-13T02:46:31.780Z,95955.02
2023-01-13T02:49:05.818Z,95953.99
2023-01-13T02:51:35.515Z,95949.73
2023-01-13T02:54:13.431Z,95952.11
2023-01-13T02:56:47.541Z,95952.48
2023-01-13T02:59:15.986Z,95949.56
2023-01-13T03:01:44.211Z,95944.72
2023-01-13T03:04:14.624Z,95945.81
2023-01-13T03:07:01.816Z,95950.25
2023-01-13T03:09:36.315Z,95948.77
2023-01-13T03:12:14.402Z,95946.56
2023-01-13T03:14:55.844Z,95943.66
2023-01-13T03:17:32.867Z,95942.51
2023-01-13T03:20:09.263Z,95943.59
2023-01-13T03:22:50.087Z,95943.92
2023-01-13T03:25:26.286Z,95947.84
2023-01-13T03:28:31.220Z,95953.27
2023-01-13T03:31:08.222Z,95948.73
2023-01-13T03:34:09.836Z,95945.81
2023-01-13T03:36:41.780Z,95947.95
2023-01-13T03:39:16.205Z,95949.02
2023-01-13T03:41:57.432Z,95950.66
2023-01-13T03:44:36.866Z,95955.84
2023-01-13T03:47:23.530Z,95958.98
2023-01-13T03:50:01.144Z,95961.18
2023-01-13T03:52:39.723Z,95964.45
2023-01-13T03:55:13.468Z,95967.79
2023-01-13T03:57:49.750Z,95965.23
2023-01-13T04:00:19.693Z,95962.84
2023-01-13T04:02:50.567Z,95971.41
2023-01-13T04:05:19.321Z,95974.32
2023-01-13T04:08:02.836Z,95970.63
2023-01-13T04:11:02.707Z,95967.80
2023-01-13T04:13:35.567Z,95969.75
2023-01-13T04:16:07.769Z,95972.73
2023-01-13T04:18:38.723Z,95970.31
2023-01-13T04:21:08.077Z,95970.63
2023-01-13T04:23:36.074Z,95975.39
2023-01-13T04:26:04.663Z,95977.59
2023-01-13T04:28:34.923Z,95977.77
2023-01-13T04:31:03.122Z,95974.48
2023-01-13T04:33:31.149Z,95971.77
2023-01-13T04:35:59.147Z,95967.93
2023-01-13T04:38:27.356Z,95969.10
2023-01-13T04:40:55.586Z,95976.42
2023-01-13T04:43:23.579Z,95973.86
2023-01-13T04:45:51.651Z,95975.09
2023-01-13T04:48:19.959Z,95976.36
2023-01-13T04:50:48.178Z,95979.12
2023-01-13T04:53:16.439Z,95978.71
2023-01-13T04:55:44.610Z,95980.73
2023-01-13T04:58:12.624Z,95980.98
2023-01-13T05:00:40.757Z,95979.48
2023-01-13T05:03:08.806Z,95979.73
2023-01-13T05:05:38.093Z,95978.25
2023-01-13T05:08:06.463Z,95974.49
2023-01-13T05:10:34.887Z,95977.89
2023-01-13T05:13:21.410Z,95977.37
2023-01-13T05:16:06.698Z,95977.64
2023-01-13T05:18:35.082Z,95980.38
2023-01-13T05:21:03.196Z,95988.73
2023-01-13T05:23:49.725Z,95989.00
2023-01-13T05:26:17.850Z,95991.32
2023-01-13T05:28:45.860Z,95995.09
2023-01-13T05:31:15.161Z,95996.54
2023-01-13T05:33:43.230Z,95999.21
2023-01-13T05:36:11.199Z,95999.14
2023-01-13T05:38:39.256Z,96000.30
2023-01-13T05:41:26.681Z,96003.98
2023-01-13T05:43:54.890Z,96006.60
2023-01-13T05:46:23.015Z,96002.88
2023-01-13T05:48:51.099Z,96002.52
2023-01-13T05:51:22.576Z,96005.14
2023-01-13T05:53:50.595Z,96001.30
2023-01-13T05:56:18.643Z,96002.36
2023-01-13T05:58:46.847Z,95998.59
2023-01-13T06:01:14.873Z,95997.99
2023-01-13T06:03:42.948Z,95999.29
2023-01-13T06:06:11.069Z,95998.48
2023-01-13T06:08:39.953Z,95998.66
2023-01-13T06:11:08.512Z,96003.33
2023-01-13T06:13:36.726Z,96004.80
2023-01-13T06:16:05.233Z,96006.41
2023-01-13T06:18:33.408Z,96009.92
2023-01-13T06:21:01.596Z,96010.78
2023-01-13T06:23:29.775Z,96010.05
2023-01-13T06:26:10.281Z,96008.21
2023-01-13T06:28:38.435Z,96008.88
2023-01-13T06:31:08.470Z,96009.30
2023-01-13T06:33:40.893Z,96011.73
2023-01-13T06:36:22.349Z,96012.48
2023-01-13T06:38:55.100Z,96017.50
2023-01-13T06:41:44.252Z,96012.86
2023-01-13T06:44:12.529Z,96011.60
2023-01-13T06:46:40.829Z,96009.64
2023-01-13T06:49:09.017Z,96007.54
2023-01-13T06:51:37.308Z,96006.33
2023-01-13T06:54:05.776Z,96007.26
2023-01-13T06:56:33.842Z,96008.27
2023-01-13T06:59:01.974Z,96012.12
2023-01-13T07:01:30.531Z,96011.73
2023-01-13T07:03:58.778Z,96006.92
2023-01-13T07:06:26.832Z,96006.85
2023-01-13T07:08:55.351Z,95996.71
2023-01-13T07:11:23.507Z,95994.06
2023-01-13T07:14:10.271Z,95996.55
2023-01-13T07:16:38.549Z,95994.02
2023-01-13T07:19:06.636Z,95996.33
2023-01-13T07:21:34.847Z,95995.52
2023-01-13T07:24:02.903Z,95994.59
2023-01-13T07:26:30.984Z,95995.30
2023-01-13T07:28:59.101Z,96000.80
2023-01-13T07:31:27.187Z,96003.04
2023-01-13T07:33:55.420Z,96001.59
2023-01-13T07:36:23.418Z,95998.13
2023-01-13T07:38:53.295Z,95996.73
2023-01-13T07:41:41.441Z,95998.23
2023-01-13T07:44:10.877Z,96003.22
2023-01-13T07:46:39.971Z,96000.08
2023-01-13T07:49:09.117Z,95999.06
2023-01-13T07:51:40.546Z,95994.75
2023-01-13T07:54:08.668Z,95999.03
2023-01-13T07:56:36.822Z,95998.67
2023-01-13T07:59:05.142Z,96000.20
2023-01-13T08:01:33.502Z,96001.98
2023-01-13T08:04:01.713Z,96003.85
2023-01-13T08:06:29.874Z,96002.29
2023-01-13T08:08:58.823Z,96001.73
2023-01-13T08:11:26.781Z,96002.09
2023-01-13T08:13:58.240Z,96001.26
2023-01-13T08:16:26.523Z,96000.61
2023-01-13T08:18:54.761Z,95999.98
2023-01-13T08:21:22.968Z,95997.49
2023-01-13T08:23:50.990Z,96003.40
2023-01-13T08:26:19.200Z,95997.70
2023-01-13T08:28:47.328Z,95997.88
2023-01-13T08:31:17.183Z,95998.40
2023-01-13T08:33:45.948Z,95996.04
2023-01-13T08:36:14.294Z,95996.27
2023-01-13T08:38:42.570Z,95994.57
2023-01-13T08:41:15.977Z,95994.44
2023-01-13T08:43:43.865Z,95993.42
2023-01-13T08:46:12.480Z,95990.73
2023-01-13T08:48:40.665Z,95990.42
2023-01-13T08:51:09.398Z,95986.70
2023-01-13T08:53:37.540Z,95983.54
2023-01-13T08:56:13.307Z,95983.15
2023-01-13T08:58:41.393Z,95981.46
2023-01-13T09:01:14.005Z,95983.92
2023-01-13T09:03:42.352Z,95976.83
2023-01-13T09:06:10.537Z,95970.05
2023-01-13T09:08:38.752Z,95971.41
2023-01-13T09:11:26.939Z,95967.41
2023-01-13T09:13:55.242Z,95971.47
2023-01-13T09:16:23.338Z,95971.93
2023-01-13T09:18:51.494Z,95970.16
2023-01-13T09:21:21.128Z,95972.45
2023-01-13T09:23:49.363Z,95971.02
2023-01-13T09:26:20.848Z,95967.47
2023-01-13T09:28:49.272Z,95964.96
2023-01-13T09:31:17.428Z,95967.66
2023-01-13T09:34:04.174Z,95966.18
2023-01-13T09:36:32.251Z,95961.26
2023-01-13T09:39:00.350Z,95956.80
2023-01-13T09:41:49.805Z,95954.44
2023-01-13T09:44:25.531Z,95950.66
2023-01-13T09:47:00.204Z,95954.23
2023-01-13T09:49:38.777Z,95958.80
2023-01-13T09:52:19.808Z,95952.02
2023-01-13T09:55:10.244Z,95948.77
2023-01-13T09:57:39.972Z,95944.13
2023-01-13T10:00:16.033Z,95942.08
2023-01-13T10:03:07.153Z,95936.41
2023-01-13T10:05:39.191Z,95937.38
2023-01-13T10:08:37.840Z,95932.83
2023-01-13T10:11:31.083Z,95924.15
2023-01-13T10:14:02.641Z,95918.39
2023-01-13T10:16:36.748Z,95916.06
2023-01-13T10:19:27.657Z,95916.55
2023-01-13T10:21:55.628Z,95912.10
2023-01-13T10:24:42.241Z,95904.02
2023-01-13T10:27:25.465Z,95898.24
2023-01-13T10:29:53.437Z,95892.36
2023-01-13T10:32:21.472Z,95890.52
2023-01-13T10:34:51.709Z,95892.91
2023-01-13T10:37:28.324Z,95892.90
2023-01-13T10:40:00.828Z,95891.02
2023-01-13T10:42:29.250Z,95886.45
2023-01-13T10:45:00.013Z,95883.09
2023-01-13T10:47:34.406Z,95876.13
2023-01-13T10:50:17.175Z,95872.61
2023-01-13T10:53:03.339Z,95878.30
2023-01-13T10:55:37.271Z,95876.93
2023-01-13T10:58:19.590Z,95872.55
2023-01-13T11:00:49.498Z,95870.13
2023-01-13T11:03:22.061Z,95871.48
2023-01-13T11:05:59.254Z,95869.18
2023-01-13T11:08:49.366Z,95860.61
2023-01-13T11:11:28.475Z,95854.08
2023-01-13T11:14:21.102Z,95851.52
2023-01-13T11:16:53.989Z,95845.99
2023-01-13T11:19:24.076Z,95844.96
2023-01-13T11:22:05.899Z,95843.64
2023-01-13T11:24:51.146Z,95847.01
2023-01-13T11:28:08.497Z,95846.83
2023-01-13T11:31:35.155Z,95843.45
2023-01-13T11:34:08.168Z,95836.20
2023-01-13T11:36:43.650Z,95831.19
2023-01-13T11:39:27.065Z,95835.26
2023-01-13T11:42:20.070Z,95831.73
2023-01-13T11:45:06.409Z,95827.33
2023-01-13T11:47:36.190Z,95831.84
2023-01-13T11:50:13.865Z,95829.85
2023-01-13T11:52:47.892Z,95823.09
2023-01-13T11:55:31.157Z,95819.86
2023-01-13T11:58:24.974Z,95821.77
2023-01-13T12:01:05.252Z,95822.42
2023-01-13T12:03:46.400Z,95819.73
2023-01-13T12:06:31.859Z,95816.71
2023-01-13T12:09:18.532Z,95818.76
2023-01-13T12:12:19.454Z,95814.97
2023-01-13T12:14:56.596Z,95811.93
2023-01-13T12:17:51.392Z,95807.21
2023-01-13T12:20:44.169Z,95803.70
2023-01-13T12:23:34.893Z,95804.72
2023-01-13T12:26:12.174Z,95798.36
2023-01-13T12:29:19.089Z,95801.50
2023-01-13T12:31:51.453Z,95804.60
2023-01-13T12:35:06.055Z,95799.89
2023-01-13T12:38:02.602Z,95799.77
2023-01-13T12:41:07.264Z,95806.59
2023-01-13T12:43:56.503Z,95807.85
2023-01-13T12:46:24.762Z,95806.31
2023-01-13T12:48:57.208Z,95801.16
2023-01-13T12:51:38.204Z,95799.76
2023-01-13T12:54:31.300Z,95800.19
2023-01-13T12:56:59.977Z,95797.55
2023-01-13T12:59:27.909Z,95800.08
2023-01-13T13:02:11.169Z,95805.30
2023-01-13T13:04:49.692Z,95811.88
2023-01-13T13:07:26.727Z,95809.49
2023-01-13T13:09:59.959Z,95808.94
2023-01-13T13:12:49.763Z,95811.27
2023-01-13T13:15:26.591Z,95817.58
2023-01-13T13:18:00.619Z,95816.87
2023-01-13T13:20:58.303Z,95818.61
2023-01-13T13:23:29.487Z,95810.09
2023-01-13T13:26:06.626Z,95805.88
2023-01-13T13:28:40.241Z,95802.83
2023-01-13T13:31:18.792Z,95808.71
2023-01-13T13:33:50.314Z,95821.41
2023-01-13T13:36:21.483Z,95822.11
2023-01-13T13:39:42.400Z,95826.02
2023-01-13T13:42:34.454Z,95828.80
2023-01-13T13:45:30.595Z,95828.98
2023-01-13T13:47:58.592Z,95831.85
2023-01-13T13:50:26.752Z,95835.63
2023-01-13T13:53:07.112Z,95835.04
2023-01-13T13:55:36.762Z,95827.86
2023-01-13T13:58:05.848Z,95832.52
2023-01-13T14:00:36.033Z,95833.80
2023-01-13T14:03:07.902Z,95844.67
2023-01-13T14:05:37.354Z,95842.77
2023-01-13T14:08:17.024Z,95845.03
2023-01-13T14:10:46.322Z,95845.19
2023-01-13T14:13:18.297Z,95848.11
2023-01-13T14:15:48.536Z,95843.33
2023-01-13T14:18:21.208Z,95846.05
2023-01-13T14:20:59.621Z,95849.70
2023-01-13T14:23:30.414Z,95850.55
2023-01-13T14:26:13.023Z,95852.63
2023-01-13T14:28:42.384Z,95853.78
2023-01-13T14:31:12.855Z,95856.34
2023-01-13T14:33:46.355Z,95862.05
2023-01-13T14:36:24.001Z,95861.14
2023-01-13T14:39:04.188Z,95865.05
2023-01-13T14:41:48.259Z,95860.91
2023-01-13T14:44:28.490Z,95862.66
2023-01-13T14:46:59.078Z,95864.63
2023-01-13T14:49:39.568Z,95867.16
2023-01-13T14:52:21.462Z,95869.75
2023-01-13T14:54:50.857Z,95865.14
2023-01-13T14:57:31.427Z,95862.40
2023-01-13T15:00:14.851Z,95863.67
2023-01-13T15:02:53.590Z,95863.50
2023-01-13T15:05:24.459Z,95866.40
2023-01-13T15:07:59.430Z,95869.42
2023-01-13T15:10:38.299Z,95871.69
2023-01-13T15:13:07.410Z,95874.12
2023-01-13T15:15:37.982Z,95871.75
2023-01-13T15:18:13.840Z,95869.89
2023-01-13T15:20:42.064Z,95868.21
2023-01-13T15:23:11.420Z,95868.83
2023-01-13T15:25:42.021Z,95871.04
2023-01-13T15:28:29.012Z,95870.73
2023-01-13T15:31:00.731Z,95871.67
2023-01-13T15:33:29.004Z,95874.30
2023-01-13T15:35:57.074Z,95871.05
2023-01-13T15:38:25.117Z,95867.45
2023-01-13T15:40:53.251Z,95866.95
2023-01-13T15:43:42.250Z,95867.89
2023-01-13T15:46:38.979Z,95869.36
2023-01-13T15:49:27.704Z,95874.61
2023-01-13T15:51:55.693Z,95869.88
2023-01-13T15:54:24.829Z,95870.46
2023-01-13T15:56:53.817Z,95874.23
2023-01-13T15:59:26.364Z,95868.29
2023-01-13T16:01:55.138Z,95866.98
2023-01-13T16:04:23.399Z,95868.52
2023-01-13T16:06:52.058Z,95868.04
2023-01-13T16:09:20.199Z,95865.38
2023-01-13T16:11:48.266Z,95866.05
2023-01-13T16:14:16.437Z,95870.95
2023-01-13T16:16:44.669Z,95869.73
2023-01-13T16:19:12.880Z,95873.45
2023-01-13T16:21:41.523Z,95876.33
2023-01-13T16:24:09.635Z,95880.69
2023-01-13T16:26:39.016Z,95878.02
2023-01-13T16:29:08.190Z,95882.51
2023-01-13T16:31:36.705Z,95882.66
2023-01-13T16:34:05.703Z,95882.02
2023-01-13T16:36:36.515Z,95884.21
2023-01-13T16:39:05.348Z,95882.90
2023-01-13T16:41:33.818Z,95885.96
2023-01-13T16:44:06.100Z,95880.94
2023-01-13T16:46:34.392Z,95875.84
2023-01-13T16:49:05.353Z,95883.30
2023-01-13T16:51:33.789Z,95882.07
2023-01-13T16:54:01.778Z,95887.67
2023-01-13T16:56:32.472Z,95885.23
2023-01-13T16:59:05.863Z,95881.44
2023-01-13T17:01:35.285Z,95879.34
2023-01-13T17:04:03.416Z,95881.08
2023-01-13T17:06:41.903Z,95883.39
2023-01-13T17:09:19.249Z,95885.44
2023-01-13T17:11:47.324Z,95879.01
2023-01-13T17:14:18.907Z,95885.58
2023-01-13T17:16:47.796Z,95889.00
2023-01-13T17:19:16.851Z,95889.80
2023-01-13T17:21:47.044Z,95892.70
2023-01-13T17:24:15.306Z,95892.49
2023-01-13T17:26:47.251Z,95893.41
2023-01-13T17:29:18.393Z,95892.23
2023-01-13T17:31:46.534Z,95891.52
2023-01-13T17:34:14.834Z,95886.61
2023-01-13T17:36:43.512Z,95889.02
2023-01-13T17:39:20.408Z,95890.36
2023-01-13T17:41:48.533Z,95888.27
2023-01-13T17:44:19.509Z,95891.84
2023-01-13T17:46:47.707Z,95887.16
2023-01-13T17:49:17.858Z,95888.29
2023-01-13T17:51:48.864Z,95886.67
2023-01-13T17:54:17.819Z,95884.58
2023-01-13T17:56:45.859Z,95880.87
2023-01-13T17:59:15.675Z,95885.30
2023-01-13T18:01:44.052Z,95886.19
2023-01-13T18:04:24.914Z,95885.47
2023-01-13T18:06:53.644Z,95879.85
2023-01-13T18:09:22.900Z,95882.05
2023-01-13T18:11:50.927Z,95882.79
2023-01-13T18:14:22.325Z,95882.52
2023-01-13T18:16:51.233Z,95881.87
2023-01-13T18:19:37.899Z,95882.24
2023-01-13T18:22:24.300Z,95884.22
2023-01-13T18:25:11.073Z,95883.86
2023-01-13T18:27:41.794Z,95883.47
2023-01-13T18:30:10.741Z,95886.93
2023-01-13T18:32:38.855Z,95884.06
2023-01-13T18:35:10.436Z,95888.19
2023-01-13T18:37:42.015Z,95888.89
2023-01-13T18:40:13.338Z,95889.50
2023-01-13T18:42:56.526Z,95887.54
2023-01-13T18:45:27.843Z,95887.33
2023-01-13T18:47:58.490Z,95887.70
2023-01-13T18:50:28.305Z,95888.15
2023-01-13T18:52:57.145Z,95889.25
2023-01-13T18:55:25.761Z,95886.06
2023-01-13T18:57:54.627Z,95887.59
2023-01-13T19:00:23.245Z,95884.80
2023-01-13T19:05:36.119Z,95884.81
2023-01-13T19:08:04.891Z,95882.59
2023-01-13T19:10:33.392Z,95881.31
2023-01-13T19:13:01.939Z,95880.88
2023-01-13T19:15:30.247Z,95884.55
2023-01-13T19:17:58.458Z,95888.84
2023-01-13T19:20:26.785Z,95883.48
2023-01-13T19:22:55.052Z,95886.10
2023-01-13T19:25:23.147Z,95885.29
2023-01-13T19:27:51.178Z,95884.23
2023-01-13T19:30:19.511Z,95885.58
2023-01-13T19:32:47.637Z,95889.98
2023-01-13T19:35:18.122Z,95890.59
2023-01-13T19:37:46.350Z,95889.66
2023-01-13T19:40:14.680Z,95892.94
2023-01-13T19:43:02.746Z,95892.17
2023-01-13T19:45:32.235Z,95890.42
2023-01-13T19:48:02.010Z,95892.05
2023-01-13T19:50:30.140Z,95893.23
2023-01-13T19:52:58.191Z,95899.60
2023-01-13T19:55:26.320Z,95897.33
2023-01-13T19:57:54.376Z,95898.83
2023-01-13T20:00:23.879Z,95897.86
2023-01-13T20:02:53.361Z,95898.30
2023-01-13T20:05:24.406Z,95902.89
2023-01-13T20:07:52.948Z,95907.41
2023-01-13T20:10:23.890Z,95909.95
2023-01-13T20:12:52.117Z,95911.51
2023-01-13T20:15:20.256Z,95914.26
2023-01-13T20:17:48.396Z,95910.27
2023-01-13T20:20:18.628Z,95910.18
2023-01-13T20:22:47.074Z,95915.52
2023-01-13T20:25:17.151Z,95913.23
2023-01-13T20:27:46.712Z,95916.83
2023-01-13T20:30:15.639Z,95909.35
2023-01-13T20:32:44.175Z,95910.08
2023-01-13T20:35:12.520Z,95911.78
2023-01-13T20:37:42.308Z,95907.67
2023-01-13T20:40:14.244Z,95909.52
2023-01-13T20:42:45.204Z,95916.45
2023-01-13T20:45:17.804Z,95909.58
2023-01-13T20:47:46.269Z,95907.73
2023-01-13T20:50:15.516Z,95905.89
2023-01-13T20:52:44.498Z,95906.30
2023-01-13T20:55:13.644Z,95909.52
2023-01-13T20:57:42.973Z,95912.15
2023-01-13T21:00:11.519Z,95917.30
2023-01-13T21:02:41.284Z,95913.98
2023-01-13T21:05:10.244Z,95918.23
2023-01-13T21:07:38.265Z,95920.50
2023-01-13T21:10:06.656Z,95922.75
2023-01-13T21:12:53.331Z,95920.52
2023-01-13T21:15:22.799Z,95925.47
2023-01-13T21:18:10.582Z,95926.05
2023-01-13T21:20:39.712Z,95927.84
2023-01-13T21:23:08.282Z,95931.78
2023-01-13T21:25:39.589Z,95937.86
2023-01-13T21:28:10.427Z,95941.13
2023-01-13T21:30:39.451Z,95946.98
2023-01-13T21:33:07.894Z,95946.27
2023-01-13T21:35:38.064Z,95947.04
2023-01-13T21:38:06.387Z,95946.52
2023-01-13T21:40:34.922Z,95952.66
2023-01-13T21:43:21.413Z,95951.74
2023-01-13T21:46:08.361Z,95952.27
2023-01-13T21:48:36.494Z,95955.28
2023-01-13T21:51:05.039Z,95956.09
2023-01-13T21:53:33.267Z,95955.13
2023-01-13T21:56:01.353Z,95954.09
2023-01-13T21:58:29.364Z,95957.14
2023-01-13T22:01:01.369Z,95962.13
2023-01-13T22:03:29.722Z,95961.80
2023-01-13T22:05:57.753Z,95958.86
2023-01-13T22:08:25.693Z,95959.88
2023-01-13T22:11:00.273Z,95958.92
2023-01-13T22:13:58.318Z,95958.30
2023-01-13T22:16:26.827Z,95951.04
2023-01-13T22:18:55.110Z,95953.77
2023-01-13T22:21:23.142Z,95951.98
2023-01-13T22:23:51.458Z,95953.48
2023-01-13T22:26:19.705Z,95955.77
2023-01-13T22:28:47.770Z,95956.55
2023-01-13T22:31:18.591Z,95956.30
2023-01-13T22:33:47.194Z,95956.39
2023-01-13T22:36:15.424Z,95956.74
2023-01-13T22:38:43.461Z,95951.17
2023-01-13T22:41:11.747Z,95950.89
2023-01-13T22:43:39.916Z,95948.59
2023-01-13T22:46:12.789Z,95949.15
2023-01-13T22:48:41.415Z,95948.80
2023-01-13T22:51:15.616Z,95946.60
2023-01-13T22:53:43.792Z,95942.89
2023-01-13T22:56:21.028Z,95941.14
2023-01-13T22:58:56.958Z,95943.83
2023-01-13T23:01:26.884Z,95944.23
2023-01-13T23:03:55.396Z,95943.20
2023-01-13T23:06:25.555Z,95943.11
2023-01-13T23:08:54.239Z,95946.51
2023-01-13T23:11:24.975Z,95939.71
2023-01-13T23:14:08.228Z,95937.99
2023-01-13T23:16:38.304Z,95936.63
2023-01-13T23:19:07.484Z,95940.11
2023-01-13T23:21:38.045Z,95942.29
2023-01-13T23:24:07.359Z,95940.62
2023-01-13T23:26:36.127Z,95941.08
2023-01-13T23:29:07.833Z,95939.19
2023-01-13T23:31:35.924Z,95935.79
2023-01-13T23:34:04.167Z,95935.27
2023-01-13T23:36:32.368Z,95933.42
2023-01-13T23:39:00.424Z,95933.54
2023-01-13T23:41:28.619Z,95935.63
2023-01-13T23:43:59.584Z,95934.09
2023-01-13T23:46:30.022Z,95927.14
2023-01-13T23:48:58.285Z,95924.28
2023-01-13T23:51:27.616Z,95926.30
2023-01-13T23:53:56.392Z,95924.73
2023-01-13T23:56:29.822Z,95923.08
2023-01-13T23:58:58.265Z,95921.87
